Terminal Aerodrome Forecast
Issued by NWS

Home | Current Version | Previous Version | Graphics & Text | Print | Product List | Glossary On
Versions: 1 2 3 4 5 6 7 8 9 10 11 12 13 14 15 16 17 18 19 20 21 22 23 24
000
FTUS43 KMPX 231100
TAFRWF
TAF
KRWF 231137Z 2312/2412 25003KT 4SM BR OVC090
     FM231500 28009KT P6SM BKN070
     FM232200 31013G18KT P6SM BKN015
     FM240900 32021G29KT P6SM OVC015=

USA.gov is the U.S. government's official web portal to all federal, state and local government web resources and services.